createdAt,value
2018-10-16T00:00:59.014Z,92.50
2018-10-16T00:03:30.761Z,92.70
2018-10-16T00:06:02.650Z,93.70
2018-10-16T00:08:33.805Z,93.00
2018-10-16T00:11:05.356Z,92.50
2018-10-16T00:13:36.664Z,92.70
2018-10-16T00:16:08.006Z,92.70
2018-10-16T00:18:39.577Z,92.90
2018-10-16T00:21:10.768Z,93.00
2018-10-16T00:23:42.523Z,92.20
2018-10-16T00:26:14.001Z,92.20
2018-10-16T00:28:45.211Z,92.60
2018-10-16T00:31:16.813Z,91.80
2018-10-16T00:33:48.133Z,91.80
2018-10-16T00:36:19.388Z,91.90
2018-10-16T00:38:50.552Z,91.90
2018-10-16T00:41:22.130Z,92.00
2018-10-16T00:43:53.426Z,92.50
2018-10-16T00:46:24.669Z,92.50
2018-10-16T00:48:56.242Z,92.40
2018-10-16T00:51:27.452Z,92.00
2018-10-16T00:53:58.659Z,91.70
2018-10-16T00:56:30.390Z,92.00
2018-10-16T00:59:01.587Z,92.40
2018-10-16T01:01:33.842Z,92.00
2018-10-16T01:04:06.197Z,92.20
2018-10-16T01:06:38.162Z,92.60
2018-10-16T01:09:13.315Z,92.80
2018-10-16T01:11:44.518Z,92.90
2018-10-16T01:14:15.710Z,92.70
2018-10-16T01:16:46.900Z,92.40
2018-10-16T01:19:18.095Z,92.70
2018-10-16T01:21:50.242Z,92.70
2018-10-16T01:24:21.672Z,92.70
2018-10-16T01:26:53.021Z,92.70
2018-10-16T01:29:24.630Z,92.40
2018-10-16T01:31:55.810Z,92.40
2018-10-16T01:34:26.983Z,92.20
2018-10-16T01:36:58.492Z,92.30
2018-10-16T01:39:30.062Z,93.20
2018-10-16T01:42:01.224Z,93.40
2018-10-16T01:44:32.436Z,93.70
2018-10-16T01:47:04.106Z,93.20
2018-10-16T01:49:35.526Z,93.30
2018-10-16T01:52:06.745Z,93.60
2018-10-16T01:54:37.948Z,93.70
2018-10-16T01:57:09.450Z,93.70
2018-10-16T01:59:41.059Z,93.70
2018-10-16T02:02:12.296Z,93.90
2018-10-16T02:04:44.015Z,94.20
2018-10-16T02:07:16.016Z,94.20
2018-10-16T02:09:47.180Z,93.90
2018-10-16T02:12:18.813Z,93.80
2018-10-16T02:14:50.500Z,94.00
2018-10-16T02:17:21.776Z,94.20
2018-10-16T02:19:52.933Z,94.10
2018-10-16T02:22:24.116Z,94.10
2018-10-16T02:24:55.732Z,93.90
2018-10-16T02:27:26.927Z,93.70
2018-10-16T02:29:58.302Z,93.80
2018-10-16T02:32:29.454Z,93.90
2018-10-16T02:35:01.508Z,94.20
2018-10-16T02:37:33.144Z,94.40
2018-10-16T02:40:04.557Z,93.90
2018-10-16T02:42:35.763Z,94.00
2018-10-16T02:45:08.214Z,94.10
2018-10-16T02:47:39.648Z,94.20
2018-10-16T02:50:12.408Z,94.90
2018-10-16T02:52:43.931Z,95.20
2018-10-16T02:55:15.090Z,95.00
2018-10-16T02:57:46.961Z,94.80
2018-10-16T03:00:18.280Z,94.20
2018-10-16T03:02:49.753Z,94.40
2018-10-16T03:05:21.342Z,94.40
2018-10-16T03:07:52.940Z,94.40
2018-10-16T03:10:24.365Z,94.60
2018-10-16T03:12:55.522Z,94.80
2018-10-16T03:15:27.108Z,95.10
2018-10-16T03:17:58.550Z,95.50
2018-10-16T03:20:30.165Z,96.00
2018-10-16T03:23:01.668Z,96.00
2018-10-16T03:25:32.858Z,95.70
2018-10-16T03:28:04.021Z,95.30
2018-10-16T03:30:36.017Z,95.10
2018-10-16T03:33:07.467Z,95.10
2018-10-16T03:35:38.642Z,95.10
2018-10-16T03:38:10.497Z,95.10
2018-10-16T03:40:42.055Z,94.80
2018-10-16T03:43:13.204Z,94.90
2018-10-16T03:45:44.414Z,94.80
2018-10-16T03:48:15.903Z,94.80
2018-10-16T03:50:47.731Z,94.60
2018-10-16T03:53:18.970Z,94.90
2018-10-16T03:55:50.125Z,94.90
2018-10-16T03:58:21.571Z,94.90
2018-10-16T04:00:53.013Z,95.20
2018-10-16T04:03:24.193Z,95.10
2018-10-16T04:05:55.878Z,95.40
2018-10-16T04:08:27.461Z,95.40
2018-10-16T04:10:58.671Z,95.70
2018-10-16T04:13:30.402Z,95.70
2018-10-16T04:16:01.575Z,96.10
2018-10-16T04:18:32.774Z,96.10
2018-10-16T04:21:03.937Z,96.10
2018-10-16T04:23:35.104Z,95.90
2018-10-16T04:26:06.599Z,96.10
2018-10-16T04:28:37.768Z,95.80
2018-10-16T04:31:10.031Z,95.80
2018-10-16T04:33:41.454Z,95.70
2018-10-16T04:36:12.878Z,95.50
2018-10-16T04:38:44.107Z,95.60
2018-10-16T04:41:15.559Z,95.50
2018-10-16T04:43:46.726Z,95.60
2018-10-16T04:46:17.889Z,95.50
2018-10-16T04:48:49.614Z,95.70
2018-10-16T04:51:21.093Z,96.90
2018-10-16T04:53:52.249Z,97.10
2018-10-16T04:56:23.696Z,96.70
2018-10-16T04:58:55.240Z,96.20
2018-10-16T05:01:27.305Z,96.00
2018-10-16T05:03:58.714Z,96.00
2018-10-16T05:06:30.515Z,96.40
2018-10-16T05:09:01.963Z,96.40
2018-10-16T05:11:33.195Z,96.40
2018-10-16T05:14:04.349Z,96.70
2018-10-16T05:16:35.826Z,97.00
2018-10-16T05:19:07.227Z,97.40
2018-10-16T05:21:38.857Z,97.50
2018-10-16T05:24:10.971Z,97.00
2018-10-16T05:26:42.489Z,96.70
2018-10-16T05:29:13.800Z,96.50
2018-10-16T05:31:44.963Z,96.30
2018-10-16T05:34:16.157Z,96.10
2018-10-16T05:36:47.364Z,96.00
2018-10-16T05:39:18.692Z,96.10
2018-10-16T05:41:50.075Z,96.40
2018-10-16T05:44:21.577Z,96.30
2018-10-16T05:46:52.751Z,96.60
2018-10-16T05:49:24.297Z,96.70
2018-10-16T05:51:55.485Z,96.80
2018-10-16T05:54:27.119Z,96.50
2018-10-16T05:56:58.239Z,97.00
2018-10-16T05:59:29.400Z,97.10
2018-10-16T06:02:01.186Z,97.40
2018-10-16T06:04:32.334Z,97.40
2018-10-16T06:07:03.775Z,97.20
2018-10-16T06:09:35.738Z,97.50
2018-10-16T06:12:07.199Z,98.00
2018-10-16T06:14:38.782Z,97.60
2018-10-16T06:17:09.946Z,97.50
2018-10-16T06:19:41.655Z,97.00
2018-10-16T06:22:13.189Z,96.90
2018-10-16T06:24:44.366Z,97.00
2018-10-16T06:27:15.557Z,97.10
2018-10-16T06:29:46.732Z,97.50
2018-10-16T06:32:17.856Z,97.60
2018-10-16T06:34:49.405Z,97.60
2018-10-16T06:37:20.865Z,97.50
2018-10-16T06:39:52.320Z,97.30
2018-10-16T06:42:36.790Z,96.70
2018-10-16T06:45:10.336Z,96.20
2018-10-16T06:47:41.548Z,95.80
2018-10-16T06:50:13.115Z,95.50
2018-10-16T06:52:44.265Z,95.10
2018-10-16T06:55:15.791Z,93.90
2018-10-16T06:57:47.270Z,93.40
2018-10-16T07:00:19.192Z,92.70
2018-10-16T07:02:50.321Z,92.10
2018-10-16T07:05:21.910Z,91.40
2018-10-16T07:07:53.460Z,90.70
2018-10-16T07:10:24.647Z,89.40
2018-10-16T07:12:56.101Z,90.10
2018-10-16T07:15:27.658Z,87.70
2018-10-16T07:17:59.101Z,85.30
2018-10-16T07:20:30.612Z,86.90
2018-10-16T07:23:01.828Z,84.80
2018-10-16T07:25:33.345Z,84.30
2018-10-16T07:28:04.496Z,84.40
2018-10-16T07:30:36.542Z,82.30
2018-10-16T07:33:07.716Z,82.60
2018-10-16T07:35:39.312Z,80.90
2018-10-16T07:38:10.645Z,80.00
2018-10-16T07:40:42.021Z,81.10
2018-10-16T07:43:13.457Z,80.90
2018-10-16T07:45:44.857Z,81.10
2018-10-16T07:48:16.051Z,79.30
2018-10-16T07:50:47.596Z,79.70
2018-10-16T07:53:19.154Z,77.10
2018-10-16T07:55:51.143Z,76.90
2018-10-16T07:58:22.584Z,75.80
2018-10-16T08:00:54.218Z,75.70
2018-10-16T08:03:25.413Z,74.40
2018-10-16T08:05:56.912Z,73.30
2018-10-16T08:08:28.387Z,68.90
2018-10-16T08:11:00.229Z,69.60
2018-10-16T08:13:31.697Z,71.10
2018-10-16T08:16:02.895Z,70.70
2018-10-16T08:18:34.124Z,69.70
2018-10-16T08:21:05.303Z,66.80
2018-10-16T08:23:36.464Z,64.80
2018-10-16T08:26:09.795Z,62.70
2018-10-16T08:28:40.938Z,62.40
2018-10-16T08:31:12.356Z,63.30
2018-10-16T08:33:43.591Z,62.10
2018-10-16T08:36:14.911Z,62.40
2018-10-16T08:39:21.101Z,61.70
2018-10-16T08:42:22.493Z,62.30
2018-10-16T08:45:49.003Z,59.30
2018-10-16T08:49:13.905Z,60.40
2018-10-16T08:51:49.774Z,59.20
2018-10-16T08:54:21.443Z,59.80
2018-10-16T08:56:52.863Z,57.20
2018-10-16T08:59:24.500Z,58.50
2018-10-16T09:01:55.691Z,57.50
2018-10-16T09:04:27.348Z,56.20
2018-10-16T09:06:58.564Z,55.00
2018-10-16T09:09:30.012Z,54.90
2018-10-16T09:12:01.317Z,54.50
2018-10-16T09:14:32.822Z,53.50
2018-10-16T09:17:04.162Z,53.50
2018-10-16T09:19:35.703Z,54.60
2018-10-16T09:22:07.073Z,54.50
2018-10-16T09:24:38.505Z,55.30
2018-10-16T09:27:09.897Z,55.40
2018-10-16T09:29:41.495Z,55.80
2018-10-16T09:32:12.712Z,52.80
2018-10-16T09:34:44.125Z,52.20
2018-10-16T09:37:15.960Z,53.40
2018-10-16T09:39:47.414Z,52.20
2018-10-16T09:42:18.971Z,52.70
2018-10-16T09:44:50.608Z,52.20
2018-10-16T09:47:22.173Z,53.30
2018-10-16T09:49:53.715Z,54.00
2018-10-16T09:52:25.373Z,53.20
2018-10-16T09:54:56.569Z,53.90
2018-10-16T09:57:27.791Z,52.40
2018-10-16T09:59:58.946Z,53.90
2018-10-16T10:02:30.769Z,53.60
2018-10-16T10:05:02.468Z,52.40
2018-10-16T10:07:34.003Z,51.70
2018-10-16T10:10:05.136Z,47.30
2018-10-16T10:12:36.425Z,48.00
2018-10-16T10:15:07.879Z,45.80
2018-10-16T10:17:39.047Z,45.10
2018-10-16T10:20:11.231Z,47.10
2018-10-16T10:22:42.897Z,45.80
2018-10-16T10:25:14.750Z,46.60
2018-10-16T10:27:46.135Z,46.70
2018-10-16T10:30:17.345Z,46.70
2018-10-16T10:32:48.586Z,47.60
2018-10-16T10:35:20.068Z,47.70
2018-10-16T10:37:51.199Z,45.90
2018-10-16T10:40:22.719Z,46.00
2018-10-16T10:42:54.180Z,47.10
2018-10-16T10:45:25.879Z,46.20
2018-10-16T10:47:57.401Z,45.90
2018-10-16T10:50:28.937Z,45.20
2018-10-16T10:53:00.299Z,44.60
2018-10-16T10:55:31.496Z,43.80
2018-10-16T10:58:02.852Z,44.10
2018-10-16T11:00:34.064Z,43.90
2018-10-16T11:03:05.610Z,42.60
2018-10-16T11:05:37.060Z,42.20
2018-10-16T11:08:08.570Z,44.30
2018-10-16T11:10:40.059Z,42.10
2018-10-16T11:13:11.677Z,42.20
2018-10-16T11:15:43.037Z,42.70
2018-10-16T11:18:14.948Z,44.00
2018-10-16T11:20:46.347Z,44.00
2018-10-16T11:23:18.280Z,44.40
2018-10-16T11:25:49.757Z,42.10
2018-10-16T11:28:21.026Z,42.00
2018-10-16T11:30:52.648Z,43.80
2018-10-16T11:33:23.884Z,43.90
2018-10-16T11:35:55.434Z,40.10
2018-10-16T11:38:27.156Z,39.60
2018-10-16T11:40:58.370Z,39.70
2018-10-16T11:43:29.808Z,40.40
2018-10-16T11:46:00.981Z,39.80
2018-10-16T11:48:32.578Z,39.90
2018-10-16T11:51:03.859Z,39.20
2018-10-16T11:53:35.190Z,38.70
2018-10-16T11:56:06.479Z,39.20
2018-10-16T11:58:37.959Z,40.00
2018-10-16T12:01:09.533Z,40.10
2018-10-16T12:03:40.768Z,38.90
2018-10-16T12:06:12.054Z,39.60
2018-10-16T12:08:43.679Z,39.40
2018-10-16T12:11:15.152Z,39.90
2018-10-16T12:13:47.255Z,40.00
2018-10-16T12:16:19.297Z,40.50
2018-10-16T12:19:09.199Z,40.00
2018-10-16T12:21:40.350Z,37.60
2018-10-16T12:24:11.869Z,37.00
2018-10-16T12:26:43.396Z,36.70
2018-10-16T12:29:14.946Z,38.20
2018-10-16T12:31:46.862Z,39.70
2018-10-16T12:34:18.041Z,37.80
2018-10-16T12:36:49.426Z,37.70
2018-10-16T12:39:21.114Z,37.70
2018-10-16T12:41:52.328Z,38.20
2018-10-16T12:44:23.507Z,37.10
2018-10-16T12:46:54.724Z,36.40
2018-10-16T12:49:25.889Z,36.00
2018-10-16T12:51:57.872Z,35.20
2018-10-16T12:54:29.691Z,36.10
2018-10-16T12:57:01.681Z,35.10
2018-10-16T12:59:32.781Z,35.70
2018-10-16T13:02:03.919Z,35.40
2018-10-16T13:04:35.078Z,34.60
2018-10-16T13:07:43.551Z,35.10
2018-10-16T13:10:19.402Z,36.70
2018-10-16T13:12:50.826Z,35.40
2018-10-16T13:15:22.021Z,34.70
2018-10-16T13:17:53.594Z,35.00
2018-10-16T13:20:25.033Z,35.50
2018-10-16T13:22:56.615Z,35.40
2018-10-16T13:25:27.944Z,36.40
2018-10-16T13:27:59.363Z,36.60
2018-10-16T13:30:30.827Z,37.20
2018-10-16T13:33:02.223Z,37.20
2018-10-16T13:35:33.424Z,37.40
2018-10-16T13:38:04.611Z,38.20
2018-10-16T13:40:36.007Z,37.30
2018-10-16T13:43:08.313Z,36.50
2018-10-16T13:45:39.779Z,36.50
2018-10-16T13:48:11.203Z,36.60
2018-10-16T13:50:42.711Z,36.70
2018-10-16T13:53:13.913Z,38.30
2018-10-16T13:55:45.065Z,39.00
2018-10-16T13:58:16.458Z,40.20
2018-10-16T14:00:47.733Z,42.20
2018-10-16T14:03:19.188Z,44.10
2018-10-16T14:05:50.579Z,43.80
2018-10-16T14:08:21.771Z,44.80
2018-10-16T14:10:52.945Z,44.60
2018-10-16T14:13:24.586Z,44.00
2018-10-16T14:15:55.808Z,42.40
2018-10-16T14:18:27.278Z,40.80
2018-10-16T14:20:58.700Z,39.00
2018-10-16T14:23:30.730Z,38.70
2018-10-16T14:26:02.390Z,37.80
2018-10-16T14:28:33.527Z,36.90
2018-10-16T14:31:04.679Z,37.20
2018-10-16T14:33:36.302Z,37.40
2018-10-16T14:36:07.515Z,38.10
2018-10-16T14:38:38.907Z,38.60
2018-10-16T14:41:10.305Z,40.40
2018-10-16T14:43:42.237Z,42.00
2018-10-16T14:46:14.213Z,44.30
2018-10-16T14:48:45.741Z,46.10
2018-10-16T14:51:16.903Z,45.70
2018-10-16T14:53:48.134Z,44.90
2018-10-16T14:56:19.378Z,47.50
2018-10-16T14:58:50.748Z,47.90
2018-10-16T15:01:22.134Z,45.30
2018-10-16T15:03:53.740Z,45.60
2018-10-16T15:06:24.860Z,45.40
2018-10-16T15:08:56.372Z,45.00
2018-10-16T15:11:27.772Z,47.00
2018-10-16T15:13:59.230Z,50.60
2018-10-16T15:16:30.399Z,50.70
2018-10-16T15:19:01.854Z,51.10
2018-10-16T15:21:33.945Z,51.90
2018-10-16T15:24:05.698Z,54.20
2018-10-16T15:26:37.201Z,52.80
2018-10-16T15:29:08.645Z,55.50
2018-10-16T15:31:40.071Z,57.20
2018-10-16T15:34:11.282Z,59.70
2018-10-16T15:36:42.843Z,60.00
2018-10-16T15:39:14.742Z,60.80
2018-10-16T15:41:46.157Z,61.70
2018-10-16T15:44:17.704Z,62.60
2018-10-16T15:46:48.981Z,63.90
2018-10-16T15:49:20.073Z,64.40
2018-10-16T15:51:51.270Z,63.00
2018-10-16T15:54:22.906Z,61.80
2018-10-16T15:56:54.386Z,62.10
2018-10-16T15:59:25.569Z,63.00
2018-10-16T16:01:57.091Z,64.40
2018-10-16T16:04:28.626Z,65.50
2018-10-16T16:07:00.041Z,66.80
2018-10-16T16:09:31.227Z,67.10
2018-10-16T16:12:02.483Z,68.10
2018-10-16T16:14:33.642Z,69.10
2018-10-16T16:17:05.532Z,70.30
2018-10-16T16:19:36.993Z,70.60
2018-10-16T16:22:08.520Z,71.60
2018-10-16T16:24:40.394Z,71.00
2018-10-16T16:27:11.795Z,70.40
2018-10-16T16:29:43.262Z,71.80
2018-10-16T16:32:14.904Z,72.60
2018-10-16T16:34:46.056Z,72.60
2018-10-16T16:37:17.736Z,72.50
2018-10-16T16:39:49.501Z,73.10
2018-10-16T16:42:20.733Z,73.70
2018-10-16T16:44:52.202Z,74.40
2018-10-16T16:47:23.651Z,74.90
2018-10-16T16:49:55.584Z,75.30
2018-10-16T16:52:27.080Z,75.40
2018-10-16T16:54:58.316Z,75.70
2018-10-16T16:57:29.980Z,76.30
2018-10-16T17:00:01.120Z,76.90
2018-10-16T17:02:32.978Z,76.90
2018-10-16T17:05:04.573Z,77.60
2018-10-16T17:07:36.340Z,77.90
2018-10-16T17:10:08.446Z,79.10
2018-10-16T17:12:40.846Z,79.70
2018-10-16T17:15:17.294Z,79.40
2018-10-16T17:17:48.899Z,79.60
2018-10-16T17:20:20.799Z,80.00
2018-10-16T17:22:51.968Z,80.40
2018-10-16T17:25:23.572Z,80.20
2018-10-16T17:27:54.641Z,80.10
2018-10-16T17:30:26.192Z,80.20
2018-10-16T17:32:58.089Z,80.80
2018-10-16T17:35:29.222Z,80.70
2018-10-16T17:38:00.701Z,81.20
2018-10-16T17:40:32.466Z,81.40
2018-10-16T17:43:04.109Z,82.50
2018-10-16T17:45:35.263Z,82.90
2018-10-16T17:48:06.917Z,84.00
2018-10-16T17:50:38.362Z,84.10
2018-10-16T17:53:09.863Z,84.80
2018-10-16T17:55:41.112Z,85.00
2018-10-16T17:58:13.052Z,85.20
2018-10-16T18:00:44.593Z,86.00
2018-10-16T18:03:15.896Z,85.70
2018-10-16T18:05:46.950Z,85.60
2018-10-16T18:08:18.457Z,85.00
2018-10-16T18:10:49.931Z,84.70
2018-10-16T18:13:21.127Z,84.80
2018-10-16T18:15:52.701Z,84.70
2018-10-16T18:18:24.325Z,84.40
2018-10-16T18:20:55.779Z,84.30
2018-10-16T18:23:26.939Z,84.10
2018-10-16T18:25:58.578Z,83.90
2018-10-16T18:28:29.986Z,82.90
2018-10-16T18:31:01.611Z,83.00
2018-10-16T18:33:33.393Z,82.90
2018-10-16T18:36:04.823Z,82.30
2018-10-16T18:38:36.260Z,82.70
2018-10-16T18:41:08.145Z,82.80
2018-10-16T18:43:58.703Z,81.90
2018-10-16T18:46:30.506Z,81.10
2018-10-16T18:49:01.653Z,81.80
2018-10-16T18:51:32.996Z,82.20
2018-10-16T18:54:04.215Z,82.30
2018-10-16T18:56:35.387Z,82.20
2018-10-16T18:59:06.630Z,82.10
2018-10-16T19:01:38.250Z,82.50
2018-10-16T19:04:09.715Z,83.20
2018-10-16T19:06:41.027Z,83.20
2018-10-16T19:09:13.511Z,84.00
2018-10-16T19:11:45.014Z,84.00
2018-10-16T19:14:16.206Z,84.70
2018-10-16T19:16:47.409Z,85.40
2018-10-16T19:19:18.655Z,86.40
2018-10-16T19:21:49.904Z,87.10
2018-10-16T19:24:21.347Z,87.30
2018-10-16T19:26:52.892Z,88.10
2018-10-16T19:29:24.300Z,87.90
2018-10-16T19:31:56.062Z,88.10
2018-10-16T19:34:27.903Z,88.30
2018-10-16T19:36:59.103Z,88.50
2018-10-16T19:39:30.269Z,88.90
2018-10-16T19:42:01.435Z,89.40
2018-10-16T19:44:32.706Z,89.10
2018-10-16T19:47:03.921Z,89.30
2018-10-16T19:49:35.366Z,90.20
2018-10-16T19:52:06.636Z,90.50
2018-10-16T19:54:38.179Z,90.00
2018-10-16T19:57:09.827Z,90.00
2018-10-16T19:59:41.546Z,90.00
2018-10-16T20:02:12.683Z,90.00
2018-10-16T20:04:44.146Z,90.00
2018-10-16T20:07:15.386Z,90.50
2018-10-16T20:09:47.397Z,90.60
2018-10-16T20:12:19.098Z,90.80
2018-10-16T20:14:50.912Z,91.30
2018-10-16T20:17:22.767Z,90.50
2018-10-16T20:19:54.385Z,90.60
2018-10-16T20:22:25.669Z,90.60
2018-10-16T20:24:57.732Z,91.50
2018-10-16T20:27:29.388Z,91.70
2018-10-16T20:30:00.832Z,91.00
2018-10-16T20:32:32.039Z,90.80
2018-10-16T20:35:03.952Z,90.80
2018-10-16T20:37:35.443Z,91.10
2018-10-16T20:40:06.796Z,91.30
2018-10-16T20:42:38.751Z,91.40
2018-10-16T20:45:10.013Z,91.80
2018-10-16T20:47:41.560Z,92.20
2018-10-16T20:50:12.784Z,92.00
2018-10-16T20:52:44.307Z,92.30
2018-10-16T20:55:15.527Z,92.20
2018-10-16T20:57:46.664Z,92.20
2018-10-16T21:00:18.094Z,91.40
2018-10-16T21:02:49.698Z,91.20
2018-10-16T21:05:21.562Z,91.70
2018-10-16T21:07:52.977Z,91.70
2018-10-16T21:10:24.174Z,92.20
2018-10-16T21:12:55.396Z,91.40
2018-10-16T21:15:27.005Z,91.50
2018-10-16T21:17:58.170Z,91.60
2018-10-16T21:20:29.620Z,91.70
2018-10-16T21:23:01.247Z,91.50
2018-10-16T21:25:32.357Z,91.60
2018-10-16T21:28:03.577Z,92.00
2018-10-16T21:30:35.133Z,92.00
2018-10-16T21:33:06.603Z,92.40
2018-10-16T21:35:38.030Z,92.00
2018-10-16T21:38:09.197Z,92.10
2018-10-16T21:40:40.842Z,91.80
2018-10-16T21:43:12.309Z,91.90
2018-10-16T21:45:44.042Z,91.70
2018-10-16T21:48:15.558Z,91.70
2018-10-16T21:50:46.985Z,91.70
2018-10-16T21:53:18.498Z,91.60
2018-10-16T21:55:49.937Z,91.90
2018-10-16T21:58:21.416Z,92.00
2018-10-16T22:01:12.273Z,91.90
2018-10-16T22:03:43.438Z,92.10
2018-10-16T22:06:14.920Z,92.70
2018-10-16T22:08:46.131Z,92.90
2018-10-16T22:11:17.591Z,93.20
2018-10-16T22:13:49.136Z,92.80
2018-10-16T22:16:20.343Z,92.80
2018-10-16T22:18:51.522Z,93.00
2018-10-16T22:21:22.691Z,93.10
2018-10-16T22:23:54.120Z,93.30
2018-10-16T22:26:25.285Z,93.60
2018-10-16T22:28:56.503Z,93.80
2018-10-16T22:31:28.243Z,94.00
2018-10-16T22:33:59.825Z,94.20
2018-10-16T22:36:31.354Z,95.00
2018-10-16T22:39:02.920Z,93.90
2018-10-16T22:41:34.405Z,93.30
2018-10-16T22:44:05.867Z,93.40
2018-10-16T22:46:37.416Z,93.50
2018-10-16T22:49:09.840Z,93.40
2018-10-16T22:51:41.319Z,93.80
2018-10-16T22:54:12.534Z,94.00
2018-10-16T22:56:44.014Z,95.10
2018-10-16T22:59:15.265Z,95.50
2018-10-16T23:01:47.077Z,95.50
2018-10-16T23:04:18.797Z,94.90
2018-10-16T23:06:50.599Z,94.90
2018-10-16T23:09:22.197Z,94.30
2018-10-16T23:11:53.333Z,94.30
2018-10-16T23:14:24.870Z,93.90
2018-10-16T23:16:56.083Z,93.90
2018-10-16T23:19:27.647Z,94.10
2018-10-16T23:21:59.377Z,94.30
2018-10-16T23:24:31.277Z,94.70
2018-10-16T23:27:02.759Z,94.50
2018-10-16T23:29:34.210Z,94.30
2018-10-16T23:32:05.742Z,94.20
2018-10-16T23:34:37.354Z,94.60
2018-10-16T23:37:08.863Z,94.70
2018-10-16T23:39:40.037Z,94.50
2018-10-16T23:42:11.248Z,94.60
2018-10-16T23:44:42.890Z,94.80
2018-10-16T23:47:14.521Z,94.70
2018-10-16T23:49:45.949Z,94.70
2018-10-16T23:52:17.114Z,95.00
2018-10-16T23:54:48.530Z,94.90
2018-10-16T23:57:19.684Z,95.20
2018-10-16T23:59:50.943Z,95.30
